Cape Normandy — HOIS — position and weather

sailwx.info

Track history (hours):
 
Tides and Currents Weather Stations Pressure Air Temp Water Temp Dewpoint Dewpoint Depression Visibility Wind Speed Wind Dir Waves Ship Positions

Cape Normandy

Last reported at 2018-Jan-21 16:26 UTC. Time now 2018-Jan-21 16:46 UTC.
Position S 18°46' E 119°03'.

Length 292 m; draft 16.1 m.

Type: Cargo ship. MMSI: 373954000.

Date/timePositionNaut miles runAvg speedWind from/ knotsBaromVisibWave heightAir tempDewpointWater temp
2018-Jan-21 16:26S 18°46' E 119°03'912.4
2018-Jan-21 15:44S 18°54' E 118°59'512.7
2018-Jan-21 15:20S 18°59' E 118°56'512.5
2018-Jan-21 14:54S 19°03' E 118°54'1412.0
2018-Jan-21 13:44S 19°16' E 118°48'612.2
2018-Jan-21 13:16S 19°21' E 118°45'412.7
2018-Jan-21 12:58S 19°25' E 118°43'610.5
2018-Jan-21 12:26S 19°30' E 118°41'511.8
2018-Jan-21 12:00S 19°34' E 118°39'611.9
2018-Jan-21 11:30S 19°40' E 118°36'811.9
2018-Jan-21 10:49S 19°47' E 118°32'411.9
2018-Jan-21 10:29S 19°51' E 118°31'714.5
2018-Jan-21 10:00S 19°57' E 118°27'710.1
2018-Jan-21 09:20S 20°04' E 118°25'410.8
2018-Jan-21 09:00S 20°06' E 118°28'611.3
2018-Jan-21 08:30S 20°11' E 118°31'9 0.7
2018-Jan-20 20:07S 20°19' E 118°35'0 0.0
2018-Jan-20 19:55S 20°19' E 118°35'0 0.0
2018-Jan-20 18:01S 20°19' E 118°35'0 0.0
2018-Jan-20 17:13S 20°19' E 118°35'0 0.0
2018-Jan-20 16:55S 20°19' E 118°35'0 0.0
2018-Jan-20 16:13S 20°19' E 118°35'0 0.0
2018-Jan-20 15:31S 20°19' E 118°35'0 0.0
2018-Jan-20 15:19S 20°19' E 118°35'0 0.0
2018-Jan-20 14:49S 20°19' E 118°35'0 0.0
2018-Jan-20 14:13S 20°19' E 118°35'0 0.0
2018-Jan-19 23:34S 20°19' E 118°35'0 0.1
2018-Jan-19 23:28S 20°19' E 118°35'0 0.0
2018-Jan-19 22:58S 20°19' E 118°35'0 0.0
2018-Jan-19 22:28S 20°19' E 118°35'0 0.0
2018-Jan-19 21:58S 20°19' E 118°35'0 0.0
2018-Jan-19 17:40S 20°19' E 118°35'1 2.6
2018-Jan-19 17:27S 20°19' E 118°34'9 9.5
2018-Jan-19 16:30S 20°10' E 118°33'4 1.9
2018-Jan-19 14:25S 20°07' E 118°37'0 0.0
2018-Jan-19 13:01S 20°07' E 118°37'0 0.0
2018-Jan-19 12:31S 20°07' E 118°37'0 0.0
2018-Jan-19 10:37S 20°07' E 118°37'0 0.0
2018-Jan-18 12:55S 20°07' E 118°37'0 0.0
2018-Jan-18 11:31S 20°07' E 118°37'0 0.0
2018-Jan-18 11:13S 20°07' E 118°37'0 0.0
2018-Jan-18 10:07S 20°07' E 118°37'0 0.0
2018-Jan-18 09:43S 20°07' E 118°37'0 0.0
2018-Jan-18 08:01S 20°07' E 118°37'0 0.1
2018-Jan-18 07:49S 20°07' E 118°37'0 0.0
2018-Jan-18 04:55S 20°07' E 118°37'0 0.0
2018-Jan-18 03:31S 20°07' E 118°37'  
Track history (hours):
 
Tides and Currents Weather Stations Pressure Air Temp Water Temp Dewpoint Dewpoint Depression Visibility Wind Speed Wind Dir Waves Ship Positions

Cape Normandy

Last reported at 2018-Jan-21 16:26 UTC. Time now 2018-Jan-21 16:46 UTC.
Position S 18°46' E 119°03'.

Length 292 m; draft 16.1 m.

Type: Cargo ship. MMSI: 373954000.

Date/timePositionNaut miles runAvg speedWind from/ knotsBaromVisibWave heightAir tempDewpointWater temp
2018-Jan-21 16:26S 18°46' E 119°03'912.4
2018-Jan-21 15:44S 18°54' E 118°59'512.7
2018-Jan-21 15:20S 18°59' E 118°56'512.5
2018-Jan-21 14:54S 19°03' E 118°54'1412.0
2018-Jan-21 13:44S 19°16' E 118°48'612.2
2018-Jan-21 13:16S 19°21' E 118°45'412.7
2018-Jan-21 12:58S 19°25' E 118°43'610.5
2018-Jan-21 12:26S 19°30' E 118°41'511.8
2018-Jan-21 12:00S 19°34' E 118°39'611.9
2018-Jan-21 11:30S 19°40' E 118°36'811.9
2018-Jan-21 10:49S 19°47' E 118°32'411.9
2018-Jan-21 10:29S 19°51' E 118°31'714.5
2018-Jan-21 10:00S 19°57' E 118°27'710.1
2018-Jan-21 09:20S 20°04' E 118°25'410.8
2018-Jan-21 09:00S 20°06' E 118°28'611.3
2018-Jan-21 08:30S 20°11' E 118°31'9 0.7
2018-Jan-20 20:07S 20°19' E 118°35'0 0.0
2018-Jan-20 19:55S 20°19' E 118°35'0 0.0
2018-Jan-20 18:01S 20°19' E 118°35'0 0.0
2018-Jan-20 17:13S 20°19' E 118°35'0 0.0
2018-Jan-20 16:55S 20°19' E 118°35'0 0.0
2018-Jan-20 16:13S 20°19' E 118°35'0 0.0
2018-Jan-20 15:31S 20°19' E 118°35'0 0.0
2018-Jan-20 15:19S 20°19' E 118°35'0 0.0
2018-Jan-20 14:49S 20°19' E 118°35'0 0.0
2018-Jan-20 14:13S 20°19' E 118°35'0 0.0
2018-Jan-19 23:34S 20°19' E 118°35'0 0.1
2018-Jan-19 23:28S 20°19' E 118°35'0 0.0
2018-Jan-19 22:58S 20°19' E 118°35'0 0.0
2018-Jan-19 22:28S 20°19' E 118°35'0 0.0
2018-Jan-19 21:58S 20°19' E 118°35'0 0.0
2018-Jan-19 17:40S 20°19' E 118°35'1 2.6
2018-Jan-19 17:27S 20°19' E 118°34'9 9.5
2018-Jan-19 16:30S 20°10' E 118°33'4 1.9
2018-Jan-19 14:25S 20°07' E 118°37'0 0.0
2018-Jan-19 13:01S 20°07' E 118°37'0 0.0
2018-Jan-19 12:31S 20°07' E 118°37'0 0.0
2018-Jan-19 10:37S 20°07' E 118°37'0 0.0
2018-Jan-18 12:55S 20°07' E 118°37'0 0.0
2018-Jan-18 11:31S 20°07' E 118°37'0 0.0
2018-Jan-18 11:13S 20°07' E 118°37'0 0.0
2018-Jan-18 10:07S 20°07' E 118°37'0 0.0
2018-Jan-18 09:43S 20°07' E 118°37'0 0.0
2018-Jan-18 08:01S 20°07' E 118°37'0 0.1
2018-Jan-18 07:49S 20°07' E 118°37'0 0.0
2018-Jan-18 04:55S 20°07' E 118°37'0 0.0
2018-Jan-18 03:31S 20°07' E 118°37'  

Dump ship's entire track history